Terminal Aerodrome Forecast
Issued by NWS

Home | Current Version | Previous Version | Text Only | Print | Product List | Glossary On
Versions: 1 2 3 4 5 6 7 8 9 10 11 12 13 14
000
FTUS44 KEPZ 062300 RRA
TAFTCS
TAF
KTCS 062335Z 0700/0724 20017G27KT P6SM SCT100 BKN200
     FM070300 26012KT P6SM FEW120
     FM070800 28008KT P6SM FEW120
     FM071700 18010G18KT P6SM FEW080
     FM072000 21015G25KT P6SM FEW100 FEW250=

USA.gov is the U.S. government's official web portal to all federal, state and local government web resources and services.